createdAt,value
2022-11-20T00:00:17.820Z,-0.30
2022-11-20T00:02:44.406Z,-0.30
2022-11-20T00:05:10.995Z,-0.30
2022-11-20T00:07:37.663Z,-0.30
2022-11-20T00:10:04.610Z,-0.30
2022-11-20T00:12:31.243Z,-0.30
2022-11-20T00:14:57.857Z,-0.30
2022-11-20T00:17:24.450Z,-0.30
2022-11-20T00:19:51.005Z,-0.30
2022-11-20T00:22:17.550Z,-0.30
2022-11-20T00:24:44.102Z,-0.30
2022-11-20T00:27:10.701Z,-0.30
2022-11-20T00:29:37.282Z,-0.30
2022-11-20T00:32:04.017Z,-0.30
2022-11-20T00:34:30.746Z,-0.30
2022-11-20T00:36:57.345Z,-0.30
2022-11-20T00:39:24.077Z,-0.30
2022-11-20T00:41:51.213Z,-0.30
2022-11-20T00:44:17.829Z,-0.30
2022-11-20T00:46:44.371Z,-0.30
2022-11-20T00:49:10.966Z,-0.40
2022-11-20T00:51:37.666Z,-0.40
2022-11-20T00:54:04.370Z,-0.30
2022-11-20T00:56:31.050Z,-0.30
2022-11-20T00:59:01.142Z,-0.30
2022-11-20T01:01:30.235Z,-0.40
2022-11-20T01:03:59.404Z,-0.40
2022-11-20T01:06:32.445Z,-0.30
2022-11-20T01:09:00.759Z,-0.40
2022-11-20T01:11:29.994Z,-0.40
2022-11-20T01:13:57.919Z,-0.40
2022-11-20T01:16:33.334Z,-0.40
2022-11-20T01:19:01.844Z,-0.40
2022-11-20T01:21:31.298Z,-0.40
2022-11-20T01:23:59.065Z,-0.40
2022-11-20T01:26:28.457Z,-0.40
2022-11-20T01:28:56.132Z,-0.40
2022-11-20T01:31:29.242Z,-0.40
2022-11-20T01:33:58.159Z,-0.40
2022-11-20T01:36:26.650Z,-0.50
2022-11-20T01:38:54.526Z,-0.40
2022-11-20T01:41:40.569Z,-0.50
2022-11-20T01:44:07.590Z,-0.50
2022-11-20T01:46:37.497Z,-0.50
2022-11-20T01:49:16.345Z,-0.50
2022-11-20T01:51:51.828Z,-0.50
2022-11-20T01:54:24.514Z,-0.50
2022-11-20T01:56:54.907Z,-0.50
2022-11-20T01:59:24.927Z,-0.50
2022-11-20T02:01:51.650Z,-0.50
2022-11-20T02:04:19.137Z,-0.50
2022-11-20T02:06:50.568Z,-0.50
2022-11-20T02:09:17.764Z,-0.50
2022-11-20T02:11:44.481Z,-0.50
2022-11-20T02:14:11.601Z,-0.50
2022-11-20T02:16:44.606Z,-0.50
2022-11-20T02:19:24.100Z,-0.60
2022-11-20T02:22:03.074Z,-0.60
2022-11-20T02:24:29.867Z,-0.60
2022-11-20T02:27:15.653Z,-0.60
2022-11-20T02:29:51.322Z,-0.70
2022-11-20T02:32:26.905Z,-0.70
2022-11-20T02:34:53.960Z,-0.70
2022-11-20T02:37:21.370Z,-0.70
2022-11-20T02:39:50.925Z,-0.70
2022-11-20T02:42:17.953Z,-0.70
2022-11-20T02:44:44.546Z,-0.80
2022-11-20T02:47:11.254Z,-0.80
2022-11-20T02:49:37.818Z,-0.80
2022-11-20T02:52:04.595Z,-0.80
2022-11-20T02:54:31.753Z,-0.80
2022-11-20T02:56:58.382Z,-0.80
2022-11-20T02:59:25.190Z,-0.80
2022-11-20T03:01:51.848Z,-0.80
2022-11-20T03:04:18.438Z,-0.80
2022-11-20T03:06:45.084Z,-0.80
2022-11-20T03:09:11.888Z,-0.80
2022-11-20T03:11:38.445Z,-0.80
2022-11-20T03:14:05.967Z,-0.80
2022-11-20T03:16:33.608Z,-0.80
2022-11-20T03:19:00.657Z,-0.80
2022-11-20T03:21:27.273Z,-0.80
2022-11-20T03:23:55.073Z,-0.80
2022-11-20T03:26:24.117Z,-0.90
2022-11-20T03:28:53.408Z,-0.90
2022-11-20T03:31:22.558Z,-0.90
2022-11-20T03:33:49.475Z,-0.90
2022-11-20T03:36:18.606Z,-0.90
2022-11-20T03:38:45.661Z,-1.00
2022-11-20T03:41:18.810Z,-1.00
2022-11-20T03:43:54.558Z,-1.00
2022-11-20T03:46:21.866Z,-1.00
2022-11-20T03:48:51.938Z,-1.00
2022-11-20T03:51:21.755Z,-1.00
2022-11-20T03:53:49.778Z,-1.00
2022-11-20T03:56:18.697Z,-1.00
2022-11-20T03:58:45.329Z,-1.00
2022-11-20T04:01:19.362Z,-1.00
2022-11-20T04:03:46.759Z,-1.00
2022-11-20T04:06:18.885Z,-1.00
2022-11-20T04:08:50.946Z,-1.00
2022-11-20T04:11:25.396Z,-1.00
2022-11-20T04:13:59.930Z,-0.90
2022-11-20T04:16:30.250Z,-1.00
2022-11-20T04:19:00.023Z,-0.90
2022-11-20T04:21:27.406Z,-1.00
2022-11-20T04:23:55.261Z,-1.00
2022-11-20T04:26:23.312Z,-1.00
2022-11-20T04:28:50.238Z,-1.00
2022-11-20T04:31:19.497Z,-1.00
2022-11-20T04:33:46.469Z,-1.00
2022-11-20T04:36:21.640Z,-1.00
2022-11-20T04:38:57.046Z,-1.10
2022-11-20T04:41:29.075Z,-1.10
2022-11-20T04:44:00.458Z,-1.10
2022-11-20T04:46:28.789Z,-1.10
2022-11-20T04:48:55.665Z,-1.20
2022-11-20T04:51:22.725Z,-1.20
2022-11-20T04:53:49.278Z,-1.20
2022-11-20T04:56:16.428Z,-1.20
2022-11-20T04:58:43.109Z,-1.30
2022-11-20T05:01:15.569Z,-1.30
2022-11-20T05:03:43.453Z,-1.30
2022-11-20T05:06:12.016Z,-1.30
2022-11-20T05:08:38.749Z,-1.30
2022-11-20T05:11:14.325Z,-1.30
2022-11-20T05:13:41.080Z,-1.30
2022-11-20T05:16:13.521Z,-1.30
2022-11-20T05:18:41.209Z,-1.30
2022-11-20T05:21:08.929Z,-1.30
2022-11-20T05:23:36.391Z,-1.40
2022-11-20T05:26:03.283Z,-1.40
2022-11-20T05:28:31.355Z,-1.40
2022-11-20T05:31:08.414Z,-1.40
2022-11-20T05:33:36.215Z,-1.40
2022-11-20T05:36:04.882Z,-1.40
2022-11-20T05:38:31.464Z,-1.40
2022-11-20T05:41:08.336Z,-1.50
2022-11-20T05:43:36.185Z,-1.50
2022-11-20T05:46:04.023Z,-1.50
2022-11-20T05:48:31.253Z,-1.50
2022-11-20T05:50:59.242Z,-1.50
2022-11-20T05:53:29.100Z,-1.50
2022-11-20T05:56:04.225Z,-1.60
2022-11-20T05:58:32.294Z,-1.60
2022-11-20T06:01:10.676Z,-1.60
2022-11-20T06:03:37.662Z,-1.60
2022-11-20T06:06:05.646Z,-1.60
2022-11-20T06:08:32.993Z,-1.60
2022-11-20T06:11:03.487Z,-1.60
2022-11-20T06:13:30.097Z,-1.60
2022-11-20T06:15:56.742Z,-1.60
2022-11-20T06:18:23.313Z,-1.60
2022-11-20T06:20:49.896Z,-1.50
2022-11-20T06:23:16.441Z,-1.60
2022-11-20T06:25:44.243Z,-1.50
2022-11-20T06:28:10.839Z,-1.50
2022-11-20T06:30:37.569Z,-1.60
2022-11-20T06:33:04.210Z,-1.50
2022-11-20T06:35:30.842Z,-1.50
2022-11-20T06:37:57.999Z,-1.50
2022-11-20T06:40:24.602Z,-1.50
2022-11-20T06:42:51.166Z,-1.50
2022-11-20T06:45:17.733Z,-1.50
2022-11-20T06:47:44.318Z,-1.60
2022-11-20T06:50:10.931Z,-1.60
2022-11-20T06:52:43.372Z,-1.60
2022-11-20T06:55:10.383Z,-1.60
2022-11-20T06:57:36.980Z,-1.60
2022-11-20T07:00:03.960Z,-1.60
2022-11-20T07:02:30.585Z,-1.60
2022-11-20T07:04:57.192Z,-1.60
2022-11-20T07:07:23.836Z,-1.60
2022-11-20T07:09:50.441Z,-1.60
2022-11-20T07:12:17.051Z,-1.60
2022-11-20T07:14:43.609Z,-1.70
2022-11-20T07:17:10.170Z,-1.70
2022-11-20T07:19:36.722Z,-1.70
2022-11-20T07:22:03.314Z,-1.70
2022-11-20T07:24:29.916Z,-1.80
2022-11-20T07:26:56.520Z,-1.80
2022-11-20T07:29:23.341Z,-1.80
2022-11-20T07:31:50.387Z,-1.80
2022-11-20T07:34:16.996Z,-1.80
2022-11-20T07:36:43.656Z,-1.90
2022-11-20T07:39:10.318Z,-1.90
2022-11-20T07:41:36.898Z,-1.90
2022-11-20T07:44:03.598Z,-1.90
2022-11-20T07:46:30.245Z,-1.80
2022-11-20T07:48:56.861Z,-1.90
2022-11-20T07:51:23.479Z,-1.90
2022-11-20T07:53:52.841Z,-1.90
2022-11-20T07:56:19.637Z,-1.90
2022-11-20T07:58:46.243Z,-1.80
2022-11-20T08:01:12.927Z,-1.80
2022-11-20T08:03:39.593Z,-1.80
2022-11-20T08:06:06.646Z,-1.80
2022-11-20T08:08:34.012Z,-1.80
2022-11-20T08:11:20.002Z,-1.70
2022-11-20T08:14:05.247Z,-1.70
2022-11-20T08:16:31.885Z,-1.60
2022-11-20T08:18:58.516Z,-1.60
2022-11-20T08:21:25.113Z,-1.60
2022-11-20T08:23:51.933Z,-1.60
2022-11-20T08:26:18.485Z,-1.60
2022-11-20T08:28:45.357Z,-1.50
2022-11-20T08:31:11.940Z,-1.50
2022-11-20T08:33:38.453Z,-1.40
2022-11-20T08:36:06.312Z,-1.40
2022-11-20T08:38:33.323Z,-1.30
2022-11-20T08:41:20.281Z,-1.30
2022-11-20T08:43:46.930Z,-1.20
2022-11-20T08:46:13.870Z,-1.20
2022-11-20T08:48:40.556Z,-1.20
2022-11-20T08:51:07.141Z,-1.10
2022-11-20T08:53:33.869Z,-1.00
2022-11-20T08:56:00.624Z,-1.10
2022-11-20T08:58:27.377Z,-1.00
2022-11-20T09:00:54.460Z,-1.00
2022-11-20T09:03:21.341Z,-0.90
2022-11-20T09:05:48.037Z,-0.90
2022-11-20T09:08:15.044Z,-0.90
2022-11-20T09:10:41.621Z,-0.80
2022-11-20T09:13:08.253Z,-0.80
2022-11-20T09:15:35.139Z,-0.80
2022-11-20T09:18:03.712Z,-0.80
2022-11-20T09:20:31.395Z,-0.80
2022-11-20T09:22:58.838Z,-0.70
2022-11-20T09:25:26.148Z,-0.70
2022-11-20T09:27:59.809Z,-0.60
2022-11-20T09:30:27.395Z,-0.60
2022-11-20T09:32:54.328Z,-0.50
2022-11-20T09:35:20.956Z,-0.40
2022-11-20T09:37:47.582Z,-0.30
2022-11-20T09:40:25.090Z,-0.20
2022-11-20T09:42:59.578Z,-0.20
2022-11-20T09:45:50.167Z,-0.10
2022-11-20T09:48:48.078Z,0.10
2022-11-20T09:51:41.037Z,0.20
2022-11-20T09:54:16.230Z,0.30
2022-11-20T09:56:54.458Z,0.40
2022-11-20T09:59:43.983Z,0.40
2022-11-20T10:02:37.391Z,0.50
2022-11-20T10:05:26.737Z,0.50
2022-11-20T10:08:23.745Z,0.60
2022-11-20T10:10:57.581Z,0.70
2022-11-20T10:13:49.229Z,0.80
2022-11-20T10:16:36.682Z,0.90
2022-11-20T10:19:41.161Z,1.00
2022-11-20T10:22:27.690Z,1.20
2022-11-20T10:25:05.358Z,1.30
2022-11-20T10:27:56.843Z,1.40
2022-11-20T10:30:26.069Z,1.50
2022-11-20T10:33:10.067Z,1.50
2022-11-20T10:36:00.675Z,1.50
2022-11-20T10:38:38.170Z,1.60
2022-11-20T10:41:25.402Z,1.60
2022-11-20T10:44:05.994Z,1.60
2022-11-20T10:46:44.123Z,1.70
2022-11-20T10:49:16.709Z,1.80
2022-11-20T10:51:53.076Z,1.90
2022-11-20T10:54:54.054Z,1.90
2022-11-20T10:57:51.585Z,1.90
2022-11-20T11:00:18.534Z,2.00
2022-11-20T11:02:52.534Z,2.00
2022-11-20T11:05:35.759Z,2.00
2022-11-20T11:08:02.969Z,2.10
2022-11-20T11:10:51.734Z,2.10
2022-11-20T11:13:26.441Z,2.20
2022-11-20T11:15:53.460Z,2.20
2022-11-20T11:18:33.785Z,2.30
2022-11-20T11:21:02.627Z,2.30
2022-11-20T11:23:37.161Z,2.30
2022-11-20T11:26:26.997Z,2.40
2022-11-20T11:28:58.602Z,2.40
2022-11-20T11:31:31.278Z,2.40
2022-11-20T11:34:17.744Z,2.40
2022-11-20T11:36:56.215Z,2.40
2022-11-20T11:39:23.281Z,2.40
2022-11-20T11:41:50.267Z,2.50
2022-11-20T11:44:42.767Z,2.50
2022-11-20T11:47:25.970Z,2.50
2022-11-20T11:50:10.838Z,2.60
2022-11-20T11:52:57.507Z,2.50
2022-11-20T11:55:50.705Z,2.60
2022-11-20T11:58:49.271Z,2.60
2022-11-20T12:01:41.776Z,2.60
2022-11-20T12:04:37.157Z,2.70
2022-11-20T12:07:44.844Z,2.70
2022-11-20T12:10:04.466Z,2.70
2022-11-20T12:12:43.677Z,2.80
2022-11-20T12:15:13.771Z,2.80
2022-11-20T12:17:40.360Z,2.80
2022-11-20T12:20:14.262Z,2.90
2022-11-20T12:22:55.778Z,2.90
2022-11-20T12:25:28.299Z,2.90
2022-11-20T12:27:57.944Z,3.00
2022-11-20T12:30:25.694Z,3.00
2022-11-20T12:33:32.133Z,3.00
2022-11-20T12:36:26.621Z,3.00
2022-11-20T12:39:13.037Z,3.00
2022-11-20T12:42:16.697Z,3.00
2022-11-20T12:45:10.257Z,3.00
2022-11-20T12:47:52.409Z,3.00
2022-11-20T12:51:08.206Z,3.00
2022-11-20T12:53:51.324Z,3.00
2022-11-20T12:56:41.286Z,3.10
2022-11-20T12:59:29.646Z,3.00
2022-11-20T13:02:41.151Z,3.10
2022-11-20T13:05:20.351Z,3.00
2022-11-20T13:07:51.417Z,3.10
2022-11-20T13:10:44.325Z,3.10
2022-11-20T13:13:36.379Z,3.10
2022-11-20T13:16:28.666Z,3.10
2022-11-20T13:18:55.436Z,3.10
2022-11-20T13:21:36.455Z,3.10
2022-11-20T13:24:08.175Z,3.20
2022-11-20T13:26:35.077Z,3.20
2022-11-20T13:29:12.904Z,3.20
2022-11-20T13:31:44.768Z,3.20
2022-11-20T13:34:22.649Z,3.20
2022-11-20T13:36:52.145Z,3.20
2022-11-20T13:39:29.968Z,3.20
2022-11-20T13:42:02.534Z,3.20
2022-11-20T13:44:47.562Z,3.20
2022-11-20T13:47:28.563Z,3.20
2022-11-20T13:49:57.918Z,3.20
2022-11-20T13:52:46.340Z,3.20
2022-11-20T13:55:44.278Z,3.30
2022-11-20T13:58:20.397Z,3.30
2022-11-20T14:01:18.997Z,3.30
2022-11-20T14:06:52.722Z,3.30
2022-11-20T14:09:31.810Z,3.30
2022-11-20T14:11:58.749Z,3.30
2022-11-20T14:14:27.724Z,3.30
2022-11-20T14:17:18.417Z,3.30
2022-11-20T14:19:47.353Z,3.30
2022-11-20T14:22:23.745Z,3.30
2022-11-20T14:25:02.937Z,3.30
2022-11-20T14:27:29.963Z,3.30
2022-11-20T14:29:56.663Z,3.30
2022-11-20T14:32:27.255Z,3.30
2022-11-20T14:34:53.904Z,3.30
2022-11-20T14:37:27.093Z,3.30
2022-11-20T14:39:55.813Z,3.30
2022-11-20T14:42:25.947Z,3.30
2022-11-20T14:44:56.143Z,3.40
2022-11-20T14:47:26.247Z,3.40
2022-11-20T14:49:54.449Z,3.40
2022-11-20T14:52:26.371Z,3.40
2022-11-20T14:55:00.595Z,3.40
2022-11-20T14:57:35.304Z,3.40
2022-11-20T15:00:14.173Z,3.40
2022-11-20T15:02:43.584Z,3.40
2022-11-20T15:05:10.940Z,3.40
2022-11-20T15:07:48.538Z,3.40
2022-11-20T15:10:22.257Z,3.40
2022-11-20T15:12:54.801Z,3.40
2022-11-20T15:15:43.833Z,3.40
2022-11-20T15:18:22.121Z,3.40
2022-11-20T15:20:49.508Z,3.40
2022-11-20T15:23:21.190Z,3.40
2022-11-20T15:25:49.306Z,3.40
2022-11-20T15:28:20.385Z,3.40
2022-11-20T15:30:48.955Z,3.40
2022-11-20T15:33:16.470Z,3.40
2022-11-20T15:35:43.578Z,3.40
2022-11-20T15:38:10.325Z,3.40
2022-11-20T15:40:37.226Z,3.40
2022-11-20T15:43:08.194Z,3.40
2022-11-20T15:45:38.837Z,3.40
2022-11-20T15:48:09.358Z,3.40
2022-11-20T15:50:40.263Z,3.40
2022-11-20T15:53:06.946Z,3.40
2022-11-20T15:55:33.673Z,3.40
2022-11-20T15:58:00.266Z,3.50
2022-11-20T16:00:27.022Z,3.40
2022-11-20T16:02:53.908Z,3.50
2022-11-20T16:05:20.606Z,3.50
2022-11-20T16:07:47.202Z,3.40
2022-11-20T16:10:13.798Z,3.50
2022-11-20T16:12:59.127Z,3.50
2022-11-20T16:15:44.478Z,3.50
2022-11-20T16:18:12.898Z,3.50
2022-11-20T16:20:40.122Z,3.50
2022-11-20T16:23:07.943Z,3.50
2022-11-20T16:25:34.727Z,3.60
2022-11-20T16:28:01.686Z,3.50
2022-11-20T16:30:28.345Z,3.50
2022-11-20T16:32:55.405Z,3.50
2022-11-20T16:35:22.026Z,3.60
2022-11-20T16:37:48.575Z,3.60
2022-11-20T16:40:15.529Z,3.60
2022-11-20T16:42:42.079Z,3.60
2022-11-20T16:45:09.227Z,3.60
2022-11-20T16:47:35.945Z,3.60
2022-11-20T16:50:04.369Z,3.60
2022-11-20T16:52:31.665Z,3.60
2022-11-20T16:54:58.720Z,3.60
2022-11-20T16:57:27.589Z,3.60
2022-11-20T16:59:56.769Z,3.70
2022-11-20T17:02:27.008Z,3.60
2022-11-20T17:04:53.958Z,3.70
2022-11-20T17:07:20.686Z,3.70
2022-11-20T17:09:48.067Z,3.70
2022-11-20T17:12:14.649Z,3.70
2022-11-20T17:14:41.237Z,3.70
2022-11-20T17:17:07.957Z,3.70
2022-11-20T17:19:34.590Z,3.80
2022-11-20T17:22:01.198Z,3.80
2022-11-20T17:24:31.577Z,3.80
2022-11-20T17:26:58.700Z,3.80
2022-11-20T17:29:25.485Z,3.80
2022-11-20T17:31:53.514Z,3.80
2022-11-20T17:34:20.159Z,3.80
2022-11-20T17:36:46.857Z,3.80
2022-11-20T17:39:17.598Z,3.80
2022-11-20T17:41:44.691Z,3.80
2022-11-20T17:44:12.699Z,3.80
2022-11-20T17:46:39.828Z,3.80
2022-11-20T17:49:06.767Z,3.80
2022-11-20T17:51:37.752Z,3.90
2022-11-20T17:54:07.404Z,3.90
2022-11-20T17:56:53.522Z,3.90
2022-11-20T17:59:20.567Z,4.00
2022-11-20T18:01:47.474Z,4.00
2022-11-20T18:04:14.576Z,4.00
2022-11-20T18:06:42.485Z,4.00
2022-11-20T18:09:09.118Z,4.00
2022-11-20T18:11:37.769Z,4.00
2022-11-20T18:14:25.699Z,4.00
2022-11-20T18:16:55.990Z,4.00
2022-11-20T18:19:29.879Z,4.00
2022-11-20T18:22:01.146Z,4.00
2022-11-20T18:24:27.834Z,4.00
2022-11-20T18:26:54.445Z,4.00
2022-11-20T18:29:21.099Z,4.00
2022-11-20T18:31:48.433Z,4.00
2022-11-20T18:34:15.207Z,4.00
2022-11-20T18:36:42.894Z,4.00
2022-11-20T18:39:11.995Z,4.00
2022-11-20T18:41:58.203Z,4.10
2022-11-20T18:44:49.419Z,4.10
2022-11-20T18:47:25.301Z,4.10
2022-11-20T18:49:54.636Z,4.10
2022-11-20T18:52:27.251Z,4.00
2022-11-20T18:54:54.968Z,4.00
2022-11-20T18:57:25.291Z,4.00
2022-11-20T18:59:53.541Z,4.10
2022-11-20T19:02:20.649Z,4.10
2022-11-20T19:04:47.830Z,4.10
2022-11-20T19:07:15.682Z,4.10
2022-11-20T19:09:44.017Z,4.10
2022-11-20T19:12:13.399Z,4.10
2022-11-20T19:14:40.078Z,4.10
2022-11-20T19:17:08.129Z,4.10
2022-11-20T19:19:35.460Z,4.10
2022-11-20T19:22:02.135Z,4.10
2022-11-20T19:24:28.867Z,4.10
2022-11-20T19:26:56.181Z,4.10
2022-11-20T19:29:24.045Z,4.10
2022-11-20T19:31:51.135Z,4.10
2022-11-20T19:34:17.789Z,4.10
2022-11-20T19:36:45.041Z,4.10
2022-11-20T19:39:12.568Z,4.10
2022-11-20T19:41:40.521Z,4.10
2022-11-20T19:44:09.621Z,4.00
2022-11-20T19:46:37.959Z,4.10
2022-11-20T19:49:07.460Z,4.00
2022-11-20T19:51:35.291Z,4.10
2022-11-20T19:54:02.873Z,4.10
2022-11-20T19:56:31.154Z,4.10
2022-11-20T19:58:58.245Z,4.10
2022-11-20T20:01:28.471Z,4.00
2022-11-20T20:03:57.570Z,4.10
2022-11-20T20:06:26.270Z,4.10
2022-11-20T20:09:01.550Z,4.10
2022-11-20T20:11:30.398Z,4.10
2022-11-20T20:13:58.986Z,4.10
2022-11-20T20:16:26.471Z,4.10
2022-11-20T20:18:58.074Z,4.10
2022-11-20T20:21:24.746Z,4.10
2022-11-20T20:23:53.612Z,4.10
2022-11-20T20:26:21.237Z,4.10
2022-11-20T20:28:48.001Z,4.10
2022-11-20T20:31:18.178Z,4.20
2022-11-20T20:33:45.522Z,4.10
2022-11-20T20:36:14.073Z,4.20
2022-11-20T20:38:40.955Z,4.10
2022-11-20T20:41:07.881Z,4.10
2022-11-20T20:43:55.277Z,4.20
2022-11-20T20:46:22.382Z,4.10
2022-11-20T20:48:54.031Z,4.20
2022-11-20T20:51:21.537Z,4.10
2022-11-20T20:53:48.331Z,4.10
2022-11-20T20:56:15.149Z,4.10
2022-11-20T20:58:41.845Z,4.10
2022-11-20T21:01:19.214Z,4.10
2022-11-20T21:03:45.952Z,4.10
2022-11-20T21:06:12.772Z,4.10
2022-11-20T21:08:41.093Z,4.10
2022-11-20T21:11:10.849Z,4.10
2022-11-20T21:13:39.079Z,4.10
2022-11-20T21:16:06.730Z,4.10
2022-11-20T21:18:33.566Z,4.10
2022-11-20T21:21:29.758Z,4.00
2022-11-20T21:23:57.561Z,4.00
2022-11-20T21:26:24.481Z,4.10
2022-11-20T21:28:51.134Z,4.10
2022-11-20T21:31:23.476Z,4.10
2022-11-20T21:33:52.285Z,4.10
2022-11-20T21:36:21.378Z,4.10
2022-11-20T21:38:50.398Z,4.10
2022-11-20T21:41:17.491Z,4.10
2022-11-20T21:43:44.477Z,4.20
2022-11-20T21:46:13.440Z,4.10
2022-11-20T21:48:42.595Z,4.20
2022-11-20T21:51:11.944Z,4.20
2022-11-20T21:53:39.506Z,4.20
2022-11-20T21:56:07.609Z,4.20
2022-11-20T21:58:35.254Z,4.20
2022-11-20T22:01:16.382Z,4.20
2022-11-20T22:03:47.106Z,4.20
2022-11-20T22:06:13.827Z,4.20
2022-11-20T22:08:40.597Z,4.20
2022-11-20T22:11:13.034Z,4.20
2022-11-20T22:13:58.968Z,4.20
2022-11-20T22:16:26.173Z,4.20
2022-11-20T22:18:55.770Z,4.20
2022-11-20T22:21:25.281Z,4.30
2022-11-20T22:23:52.631Z,4.20
2022-11-20T22:26:22.006Z,4.20
2022-11-20T22:28:54.241Z,4.20
2022-11-20T22:31:22.744Z,4.20
2022-11-20T22:33:49.950Z,4.20
2022-11-20T22:36:21.699Z,4.20
2022-11-20T22:38:48.414Z,4.20
2022-11-20T22:41:17.989Z,4.20
2022-11-20T22:43:45.153Z,4.20
2022-11-20T22:46:14.486Z,4.20
2022-11-20T22:48:49.879Z,4.20
2022-11-20T22:51:17.809Z,4.20
2022-11-20T22:53:44.783Z,4.20
2022-11-20T22:56:12.752Z,4.20
2022-11-20T22:58:41.760Z,4.20
2022-11-20T23:01:21.109Z,4.20
2022-11-20T23:03:50.141Z,4.20
2022-11-20T23:06:18.435Z,4.20
2022-11-20T23:08:45.779Z,4.20
2022-11-20T23:11:15.312Z,4.20
2022-11-20T23:13:42.443Z,4.20
2022-11-20T23:16:12.345Z,4.30
2022-11-20T23:18:39.625Z,4.20
2022-11-20T23:21:14.226Z,4.30
2022-11-20T23:23:41.453Z,4.20
2022-11-20T23:26:11.026Z,4.30
2022-11-20T23:28:38.716Z,4.20
2022-11-20T23:31:05.826Z,4.20
2022-11-20T23:33:34.951Z,4.30
2022-11-20T23:36:01.929Z,4.30
2022-11-20T23:38:28.583Z,4.20
2022-11-20T23:40:55.144Z,4.20
2022-11-20T23:43:22.743Z,4.30
2022-11-20T23:45:53.954Z,4.30
2022-11-20T23:48:22.991Z,4.20
2022-11-20T23:50:49.884Z,4.20
2022-11-20T23:53:17.430Z,4.20
2022-11-20T23:55:52.622Z,4.20
2022-11-20T23:58:20.430Z,4.20
